Etusivu
METAR-TAF:

METAR-TAF

Lentoasemat :

Opelousas, Louisiana, Yhdysvallat

Leveyspiiri: 30-33-30N, Pituuspiiri: 092-05-58W, korkeus merenpinnasta: 23 m

Tämänhetkinen sää

Tämä raportti tehtiin 20 minuuttia sitten, kello 18.35 UTC
Tuuli 4 kn pohjoisesta/koillisesta
Lämpötila 19°C
Kosteus 30%
Ilmanpaine 1026 hPa
Näkyvyys: 16.1 km
selkeää

METAR: KOPL 191835Z AUTO 03004KT 10SM CLR 19/01 A3030 RMK AO2 T01920010

Aika: 13:55 (18:55 UTC)


TAF: puuttuu

Säähavainnot ja -ennusteet yli 4000 lentoasemalta (METAR- ja TAF-raportit).

Käytössä olevat sääasemat on merkitty karttaan keltaisilla ja punaisilla pisteillä.

Aseta hiiri pisteen päälle nähdäksesi sääaseman nimen.

Klikkaa sitten nähdäksesi säähavainnot ja -ennusteet.

Kartan vaihtaminen: klikkaa mustalla rastilla varustettuja vihreitä pisteitä, niin voit zoomata sisään; viivalla varustettua vihreää pistettä, niin voit zoomata ulos tai vihreitä nuolia, niin pääset viereisille kartoille.


METAR-TAF: